Glenville, WV

2:30 PM EDT on August 29, 2016 (GMT -0400)
Brooklyn Point | | Change Station

Elev 732 ft 38.94 °N, 80.84 °W | Updated 37 seconds ago

Partly Cloudy
Partly Cloudy
90.6 °F
Feels Like 103 °F
N
3.0
Wind Variable Wind from NE

Today
High -- | Low -- °F
--% Chance of Precip.
Yesterday
High -- | Low -- °F
Precip. -- in
Pressure 30.19 in
Visibility 10.0 miles
Clouds Few 2900 ft
Heat Index 103 °F
Dew Point 76 °F
Humidity 63%
Rainfall in
Snow Depth Not available.
6:49 AM 7:57 PM
Waning Crescent, 7% visible
METAR KCKB 291753Z 36008KT 10SM FEW029 28/21 A3023 RMK AO2 SLP221 T02830206 10289 20194 58007
Pressure 30.19 in
Visibility 10.0 miles
Clouds Few 2900 ft
Heat Index 103 °F
Dew Point 76 °F
Humidity 63%
Rainfall in
Snow Depth Not available.
6:49 AM 7:57 PM
Waning Crescent, 7% visible
METAR KCKB 291753Z 36008KT 10SM FEW029 28/21 A3023 RMK AO2 SLP221 T02830206 10289 20194 58007

10-Day Weather Forecast

Almanac

Astronomy

Aug. 29, 2016 Rise Set
Actual Time
Civil Twilight
Nautical Twilight
Astronomical Twilight
Moon
Length of Visible Light
Length of Day
Tomorrow will be .
, % of the Moon is Illuminated

Today's Extremes

State Highs State Lows

Community

WunderPhotos

Upload Photos

1,935,684 photos uploaded!

WunderBlog® & News

Nearby

Air Quality

  Air Quality AQ Index Pollutant
Not available.

Snow Depth

Station Depth Elevation

Earthquake Activity

City Distance Mag. Time & Date
Minimum magnitude displayed is 2.5.

Coastal Water Temperatures

Place Temperature

Stations

Nearby Weather Stations

Station Location Temp. Windchill Dew Point Humidity Wind Precip. Elev Updated Type
                   

Watches & Warnings

There are currently no watches in effect.